Airfield :
LOGIN :

Register | Disclaimer

   EN    FR    IT 

 










Legend :    VFR   Marginal VFR   IFR   Intensive IFR   Very Intensive IFR
Visi :
Ceiling :
>= 8 km
>= 3000ft
5 to 8 km
1000 to 3000 ft
1500m to 5 km
500 to 1000 ft
800 to 1500m
200 to 500 ft
< 800m
< 200 ft
Symbols :   Thunderstorms  Fog  Heavy snow  Heavy precipitations  Wind > 20 kt
SIGMETs :     Misc.  Thunderstorms  Icing  Turbulence  Mountain Waves  Volcanic Ashes







- Airport Elevation : 755 ft
- IATA code : KSC


LZKZ - Kosice

CURRENT METAR :
  • 260330Z 00000KT CAVOK 11/09 Q1015

EXPIRED METARs :
  • 260300Z 04003KT CAVOK 11/09 Q1015
  • 260230Z 01004KT CAVOK 11/09 Q1015
  • 260200Z 36003KT CAVOK 11/09 Q1015
  • 260130Z VRB01KT CAVOK 12/09 Q1014
  • 260100Z 01004KT CAVOK 12/09 Q1015
  • 260030Z 35003KT CAVOK 12/09 Q1015

TAF TAF LZKZ
Valid from the 26 at 00:00 until the 27 at 00:00 UTC


252300Z 2600/2700 36005KT CAVOK
BECMG 2608/2610 21008KT 9999 FEW040
TEMPO 2610/2617 21016KT
BECMG 2619/2621 VRB02KT CAVOK
No reported NOTAMs for that airfield.



MET'MAP, your aeronautical weather chart ! - Copyright ORBIFLY December 2007 - Disclaimer

ORBIFLY MET'MAP TEAM :

Programming & Development : Alexandra Zaïnal
Concept & Development : Baudouin d'Aumeries
Co-Development & Prog : Marc-Olivier Méhu
Technical & hardware support : Manuel Goepfert

Contact : metmap@orbifly.com




SOURCES & CREDITS :

   NOAA